sensor_id;sensor_type;location;lat;lon;timestamp;temperature;humidity
10433;DHT22;5263;48.680;9.004;2023-08-08T00:02:07;11.90;99.90
10433;DHT22;5263;48.680;9.004;2023-08-08T00:04:33;11.70;99.90
10433;DHT22;5263;48.680;9.004;2023-08-08T00:06:59;11.60;99.90
10433;DHT22;5263;48.680;9.004;2023-08-08T00:09:24;11.60;99.90
10433;DHT22;5263;48.680;9.004;2023-08-08T00:11:50;11.70;99.90
10433;DHT22;5263;48.680;9.004;2023-08-08T00:14:15;12.10;99.90
10433;DHT22;5263;48.680;9.004;2023-08-08T00:16:41;12.20;99.90
10433;DHT22;5263;48.680;9.004;2023-08-08T00:19:07;12.30;99.90
10433;DHT22;5263;48.680;9.004;2023-08-08T00:21:32;12.40;99.90
10433;DHT22;5263;48.680;9.004;2023-08-08T00:23:58;12.60;99.90
10433;DHT22;5263;48.680;9.004;2023-08-08T00:26:23;12.60;99.90
10433;DHT22;5263;48.680;9.004;2023-08-08T00:28:49;12.60;99.90
10433;DHT22;5263;48.680;9.004;2023-08-08T00:31:14;12.70;99.90
10433;DHT22;5263;48.680;9.004;2023-08-08T00:33:43;12.80;99.90
10433;DHT22;5263;48.680;9.004;2023-08-08T00:36:08;12.70;99.90
10433;DHT22;5263;48.680;9.004;2023-08-08T00:38:34;12.80;99.90
10433;DHT22;5263;48.680;9.004;2023-08-08T00:40:59;12.70;99.90
10433;DHT22;5263;48.680;9.004;2023-08-08T00:43:25;12.80;99.90
10433;DHT22;5263;48.680;9.004;2023-08-08T00:45:50;12.90;99.90
10433;DHT22;5263;48.680;9.004;2023-08-08T00:48:16;13.00;99.90
10433;DHT22;5263;48.680;9.004;2023-08-08T00:50:43;12.90;99.90
10433;DHT22;5263;48.680;9.004;2023-08-08T00:53:10;12.80;99.90
10433;DHT22;5263;48.680;9.004;2023-08-08T00:55:35;12.80;99.90
10433;DHT22;5263;48.680;9.004;2023-08-08T00:58:01;12.80;99.90
10433;DHT22;5263;48.680;9.004;2023-08-08T01:00:27;12.70;99.90
10433;DHT22;5263;48.680;9.004;2023-08-08T01:02:52;12.60;99.90
10433;DHT22;5263;48.680;9.004;2023-08-08T01:05:20;12.60;99.90
10433;DHT22;5263;48.680;9.004;2023-08-08T01:08:07;12.70;99.90
10433;DHT22;5263;48.680;9.004;2023-08-08T01:10:39;12.60;99.90
10433;DHT22;5263;48.680;9.004;2023-08-08T01:13:21;12.60;99.90
10433;DHT22;5263;48.680;9.004;2023-08-08T01:15:48;12.60;99.90
10433;DHT22;5263;48.680;9.004;2023-08-08T01:18:15;12.60;99.90
10433;DHT22;5263;48.680;9.004;2023-08-08T01:20:43;12.70;99.90
10433;DHT22;5263;48.680;9.004;2023-08-08T01:23:19;12.80;99.90
10433;DHT22;5263;48.680;9.004;2023-08-08T01:25:49;12.70;99.90
10433;DHT22;5263;48.680;9.004;2023-08-08T01:28:15;12.60;99.90
10433;DHT22;5263;48.680;9.004;2023-08-08T01:30:41;12.60;99.90
10433;DHT22;5263;48.680;9.004;2023-08-08T01:33:08;12.50;99.90
10433;DHT22;5263;48.680;9.004;2023-08-08T01:35:38;12.60;99.90
10433;DHT22;5263;48.680;9.004;2023-08-08T01:38:28;12.70;99.90
10433;DHT22;5263;48.680;9.004;2023-08-08T01:40:56;12.60;99.90
10433;DHT22;5263;48.680;9.004;2023-08-08T01:43:24;12.50;99.90
10433;DHT22;5263;48.680;9.004;2023-08-08T01:45:50;12.70;99.90
10433;DHT22;5263;48.680;9.004;2023-08-08T01:48:16;12.90;99.90
10433;DHT22;5263;48.680;9.004;2023-08-08T01:50:42;12.70;99.90
10433;DHT22;5263;48.680;9.004;2023-08-08T01:53:07;12.80;99.90
10433;DHT22;5263;48.680;9.004;2023-08-08T01:55:33;12.60;99.90
10433;DHT22;5263;48.680;9.004;2023-08-08T01:57:58;12.70;99.90
10433;DHT22;5263;48.680;9.004;2023-08-08T02:00:24;12.70;99.90
10433;DHT22;5263;48.680;9.004;2023-08-08T02:02:50;12.60;99.90
10433;DHT22;5263;48.680;9.004;2023-08-08T02:05:15;12.70;99.90
10433;DHT22;5263;48.680;9.004;2023-08-08T02:07:41;12.50;99.90
10433;DHT22;5263;48.680;9.004;2023-08-08T02:10:07;12.50;99.90
10433;DHT22;5263;48.680;9.004;2023-08-08T02:12:32;12.60;99.90
10433;DHT22;5263;48.680;9.004;2023-08-08T02:17:26;12.70;99.90
10433;DHT22;5263;48.680;9.004;2023-08-08T02:19:52;12.80;99.90
10433;DHT22;5263;48.680;9.004;2023-08-08T02:22:18;12.80;99.90
10433;DHT22;5263;48.680;9.004;2023-08-08T02:24:44;12.80;99.90
10433;DHT22;5263;48.680;9.004;2023-08-08T02:27:12;12.70;99.90
10433;DHT22;5263;48.680;9.004;2023-08-08T02:29:37;12.70;99.90
10433;DHT22;5263;48.680;9.004;2023-08-08T02:32:03;12.60;99.90
10433;DHT22;5263;48.680;9.004;2023-08-08T02:34:29;12.60;99.90
10433;DHT22;5263;48.680;9.004;2023-08-08T02:36:54;12.50;99.90
10433;DHT22;5263;48.680;9.004;2023-08-08T02:39:20;12.50;99.90
10433;DHT22;5263;48.680;9.004;2023-08-08T02:41:45;12.40;99.90
10433;DHT22;5263;48.680;9.004;2023-08-08T02:44:11;12.30;99.90
10433;DHT22;5263;48.680;9.004;2023-08-08T02:46:37;12.40;99.90
10433;DHT22;5263;48.680;9.004;2023-08-08T02:49:05;12.30;99.90
10433;DHT22;5263;48.680;9.004;2023-08-08T02:51:30;12.20;99.90
10433;DHT22;5263;48.680;9.004;2023-08-08T02:53:56;12.20;99.90
10433;DHT22;5263;48.680;9.004;2023-08-08T02:56:22;12.30;99.90
10433;DHT22;5263;48.680;9.004;2023-08-08T02:58:47;12.20;99.90
10433;DHT22;5263;48.680;9.004;2023-08-08T03:01:13;12.10;99.90
10433;DHT22;5263;48.680;9.004;2023-08-08T03:03:40;12.00;99.90
10433;DHT22;5263;48.680;9.004;2023-08-08T03:06:06;12.00;99.90
10433;DHT22;5263;48.680;9.004;2023-08-08T03:08:31;12.10;99.90
10433;DHT22;5263;48.680;9.004;2023-08-08T03:10:57;11.90;99.90
10433;DHT22;5263;48.680;9.004;2023-08-08T03:13:23;12.00;99.90
10433;DHT22;5263;48.680;9.004;2023-08-08T03:15:48;12.00;99.90
10433;DHT22;5263;48.680;9.004;2023-08-08T03:18:14;12.10;99.90
10433;DHT22;5263;48.680;9.004;2023-08-08T03:20:40;12.00;99.90
10433;DHT22;5263;48.680;9.004;2023-08-08T03:23:05;12.20;99.90
10433;DHT22;5263;48.680;9.004;2023-08-08T03:25:31;12.10;99.90
10433;DHT22;5263;48.680;9.004;2023-08-08T03:27:56;12.20;99.90
10433;DHT22;5263;48.680;9.004;2023-08-08T03:30:22;12.30;99.90
10433;DHT22;5263;48.680;9.004;2023-08-08T03:32:47;12.30;99.90
10433;DHT22;5263;48.680;9.004;2023-08-08T03:35:13;12.50;99.90
10433;DHT22;5263;48.680;9.004;2023-08-08T03:37:40;12.50;99.90
10433;DHT22;5263;48.680;9.004;2023-08-08T03:40:06;12.60;99.90
10433;DHT22;5263;48.680;9.004;2023-08-08T03:42:33;12.40;99.90
10433;DHT22;5263;48.680;9.004;2023-08-08T03:44:58;12.40;99.90
10433;DHT22;5263;48.680;9.004;2023-08-08T03:47:24;12.40;99.90
10433;DHT22;5263;48.680;9.004;2023-08-08T03:49:50;12.60;99.90
10433;DHT22;5263;48.680;9.004;2023-08-08T03:52:15;12.60;99.90
10433;DHT22;5263;48.680;9.004;2023-08-08T03:54:42;12.60;99.90
10433;DHT22;5263;48.680;9.004;2023-08-08T03:57:07;12.60;99.90
10433;DHT22;5263;48.680;9.004;2023-08-08T03:59:33;12.60;99.90
10433;DHT22;5263;48.680;9.004;2023-08-08T04:01:58;12.60;99.90
10433;DHT22;5263;48.680;9.004;2023-08-08T04:04:24;12.70;99.90
10433;DHT22;5263;48.680;9.004;2023-08-08T04:06:49;12.60;99.90
10433;DHT22;5263;48.680;9.004;2023-08-08T04:09:15;12.60;99.90
10433;DHT22;5263;48.680;9.004;2023-08-08T04:11:41;12.60;99.90
10433;DHT22;5263;48.680;9.004;2023-08-08T04:14:06;12.60;99.90
10433;DHT22;5263;48.680;9.004;2023-08-08T04:16:32;12.60;99.90
10433;DHT22;5263;48.680;9.004;2023-08-08T04:18:57;12.70;99.90
10433;DHT22;5263;48.680;9.004;2023-08-08T04:21:24;12.70;99.90
10433;DHT22;5263;48.680;9.004;2023-08-08T04:23:52;12.80;99.90
10433;DHT22;5263;48.680;9.004;2023-08-08T04:26:18;12.70;99.90
10433;DHT22;5263;48.680;9.004;2023-08-08T04:28:43;12.60;99.90
10433;DHT22;5263;48.680;9.004;2023-08-08T04:31:09;12.60;99.90
10433;DHT22;5263;48.680;9.004;2023-08-08T04:33:34;12.60;99.90
10433;DHT22;5263;48.680;9.004;2023-08-08T04:36:00;12.40;99.90
10433;DHT22;5263;48.680;9.004;2023-08-08T04:38:25;12.40;99.90
10433;DHT22;5263;48.680;9.004;2023-08-08T04:40:51;12.20;99.90
10433;DHT22;5263;48.680;9.004;2023-08-08T04:43:17;12.20;99.90
10433;DHT22;5263;48.680;9.004;2023-08-08T04:45:42;12.10;99.90
10433;DHT22;5263;48.680;9.004;2023-08-08T04:48:08;12.30;99.90
10433;DHT22;5263;48.680;9.004;2023-08-08T04:50:33;12.40;99.90
10433;DHT22;5263;48.680;9.004;2023-08-08T04:52:59;12.50;99.90
10433;DHT22;5263;48.680;9.004;2023-08-08T04:55:24;12.30;99.90
10433;DHT22;5263;48.680;9.004;2023-08-08T04:57:50;12.20;99.90
10433;DHT22;5263;48.680;9.004;2023-08-08T05:00:16;12.40;99.90
10433;DHT22;5263;48.680;9.004;2023-08-08T05:02:41;12.30;99.90
10433;DHT22;5263;48.680;9.004;2023-08-08T05:05:07;12.20;99.90
10433;DHT22;5263;48.680;9.004;2023-08-08T05:07:33;12.30;99.90
10433;DHT22;5263;48.680;9.004;2023-08-08T05:10:02;12.30;99.90
10433;DHT22;5263;48.680;9.004;2023-08-08T05:12:28;12.50;99.90
10433;DHT22;5263;48.680;9.004;2023-08-08T05:14:53;12.40;99.90
10433;DHT22;5263;48.680;9.004;2023-08-08T05:17:19;12.30;99.90
10433;DHT22;5263;48.680;9.004;2023-08-08T05:19:44;12.30;99.90
10433;DHT22;5263;48.680;9.004;2023-08-08T05:22:10;12.20;99.90
10433;DHT22;5263;48.680;9.004;2023-08-08T05:24:35;12.20;99.90
10433;DHT22;5263;48.680;9.004;2023-08-08T05:27:01;12.30;99.90
10433;DHT22;5263;48.680;9.004;2023-08-08T05:29:29;12.30;99.90
10433;DHT22;5263;48.680;9.004;2023-08-08T05:31:54;12.30;99.90
10433;DHT22;5263;48.680;9.004;2023-08-08T05:34:20;12.50;99.90
10433;DHT22;5263;48.680;9.004;2023-08-08T05:36:45;12.70;99.90
10433;DHT22;5263;48.680;9.004;2023-08-08T05:39:11;12.70;99.90
10433;DHT22;5263;48.680;9.004;2023-08-08T05:41:36;12.60;99.90
10433;DHT22;5263;48.680;9.004;2023-08-08T05:44:02;12.70;99.90
10433;DHT22;5263;48.680;9.004;2023-08-08T05:46:28;12.90;99.90
10433;DHT22;5263;48.680;9.004;2023-08-08T05:48:53;12.90;99.90
10433;DHT22;5263;48.680;9.004;2023-08-08T05:51:19;13.00;99.90
10433;DHT22;5263;48.680;9.004;2023-08-08T05:53:44;13.00;99.90
10433;DHT22;5263;48.680;9.004;2023-08-08T05:56:10;13.10;99.90
10433;DHT22;5263;48.680;9.004;2023-08-08T05:58:36;13.20;99.90
10433;DHT22;5263;48.680;9.004;2023-08-08T06:01:03;13.30;99.90
10433;DHT22;5263;48.680;9.004;2023-08-08T06:03:31;13.40;99.90
10433;DHT22;5263;48.680;9.004;2023-08-08T06:05:57;13.40;99.90
10433;DHT22;5263;48.680;9.004;2023-08-08T06:08:23;13.50;99.90
10433;DHT22;5263;48.680;9.004;2023-08-08T06:10:48;13.60;99.90
10433;DHT22;5263;48.680;9.004;2023-08-08T06:13:14;13.70;99.90
10433;DHT22;5263;48.680;9.004;2023-08-08T06:15:39;13.70;99.90
10433;DHT22;5263;48.680;9.004;2023-08-08T06:18:05;13.80;99.90
10433;DHT22;5263;48.680;9.004;2023-08-08T06:20:31;13.90;99.90
10433;DHT22;5263;48.680;9.004;2023-08-08T06:22:57;14.10;99.90
10433;DHT22;5263;48.680;9.004;2023-08-08T06:25:22;14.20;99.90
10433;DHT22;5263;48.680;9.004;2023-08-08T06:27:48;14.40;99.90
10433;DHT22;5263;48.680;9.004;2023-08-08T06:30:14;14.60;99.90
10433;DHT22;5263;48.680;9.004;2023-08-08T06:32:40;14.70;99.90
10433;DHT22;5263;48.680;9.004;2023-08-08T06:35:06;14.80;99.90
10433;DHT22;5263;48.680;9.004;2023-08-08T06:37:31;14.90;99.90
10433;DHT22;5263;48.680;9.004;2023-08-08T06:39:58;15.00;99.90
10433;DHT22;5263;48.680;9.004;2023-08-08T06:42:23;15.10;99.90
10433;DHT22;5263;48.680;9.004;2023-08-08T06:44:49;15.10;99.90
10433;DHT22;5263;48.680;9.004;2023-08-08T06:47:14;15.10;99.90
10433;DHT22;5263;48.680;9.004;2023-08-08T06:49:40;15.20;99.90
10433;DHT22;5263;48.680;9.004;2023-08-08T06:52:06;15.40;99.90
10433;DHT22;5263;48.680;9.004;2023-08-08T06:54:32;15.50;99.90
10433;DHT22;5263;48.680;9.004;2023-08-08T06:56:57;15.70;99.90
10433;DHT22;5263;48.680;9.004;2023-08-08T06:59:23;15.80;99.90
10433;DHT22;5263;48.680;9.004;2023-08-08T07:01:50;16.00;99.90
10433;DHT22;5263;48.680;9.004;2023-08-08T07:04:16;15.90;99.90
10433;DHT22;5263;48.680;9.004;2023-08-08T07:06:43;16.00;99.90
10433;DHT22;5263;48.680;9.004;2023-08-08T07:09:10;16.00;99.90
10433;DHT22;5263;48.680;9.004;2023-08-08T07:11:36;16.10;99.90
10433;DHT22;5263;48.680;9.004;2023-08-08T07:14:02;16.10;99.90
10433;DHT22;5263;48.680;9.004;2023-08-08T07:16:28;16.20;99.90
10433;DHT22;5263;48.680;9.004;2023-08-08T07:18:53;16.20;99.90
10433;DHT22;5263;48.680;9.004;2023-08-08T07:21:19;16.20;99.90
10433;DHT22;5263;48.680;9.004;2023-08-08T07:23:45;16.30;99.90
10433;DHT22;5263;48.680;9.004;2023-08-08T07:26:11;16.50;99.90
10433;DHT22;5263;48.680;9.004;2023-08-08T07:28:36;16.60;99.90
10433;DHT22;5263;48.680;9.004;2023-08-08T07:31:02;16.70;99.90
10433;DHT22;5263;48.680;9.004;2023-08-08T07:33:27;16.70;99.90
10433;DHT22;5263;48.680;9.004;2023-08-08T07:35:53;16.80;99.90
10433;DHT22;5263;48.680;9.004;2023-08-08T07:38:18;16.90;99.90
10433;DHT22;5263;48.680;9.004;2023-08-08T07:40:44;17.00;99.90
10433;DHT22;5263;48.680;9.004;2023-08-08T07:43:11;17.30;99.90
10433;DHT22;5263;48.680;9.004;2023-08-08T07:45:37;16.90;99.90
10433;DHT22;5263;48.680;9.004;2023-08-08T07:48:03;16.90;99.90
10433;DHT22;5263;48.680;9.004;2023-08-08T07:50:29;16.80;99.90
10433;DHT22;5263;48.680;9.004;2023-08-08T07:52:55;17.10;99.90
10433;DHT22;5263;48.680;9.004;2023-08-08T07:55:20;17.20;99.90
10433;DHT22;5263;48.680;9.004;2023-08-08T07:57:46;17.30;99.90
10433;DHT22;5263;48.680;9.004;2023-08-08T08:00:12;17.20;99.90
10433;DHT22;5263;48.680;9.004;2023-08-08T08:02:39;17.20;99.90
10433;DHT22;5263;48.680;9.004;2023-08-08T08:05:04;17.10;99.90
10433;DHT22;5263;48.680;9.004;2023-08-08T08:07:33;17.30;99.90
10433;DHT22;5263;48.680;9.004;2023-08-08T08:09:59;17.30;99.90
10433;DHT22;5263;48.680;9.004;2023-08-08T08:12:24;17.40;99.90
10433;DHT22;5263;48.680;9.004;2023-08-08T08:14:50;17.60;99.90
10433;DHT22;5263;48.680;9.004;2023-08-08T08:17:15;17.80;99.90
10433;DHT22;5263;48.680;9.004;2023-08-08T08:22:14;18.30;99.90
10433;DHT22;5263;48.680;9.004;2023-08-08T08:24:39;18.40;99.90
10433;DHT22;5263;48.680;9.004;2023-08-08T08:27:05;18.50;99.90
10433;DHT22;5263;48.680;9.004;2023-08-08T08:29:31;18.40;99.90
10433;DHT22;5263;48.680;9.004;2023-08-08T08:31:58;18.30;99.90
10433;DHT22;5263;48.680;9.004;2023-08-08T08:34:23;18.30;99.90
10433;DHT22;5263;48.680;9.004;2023-08-08T08:36:49;18.20;99.90
10433;DHT22;5263;48.680;9.004;2023-08-08T08:39:14;18.20;99.90
10433;DHT22;5263;48.680;9.004;2023-08-08T08:41:40;18.20;99.90
10433;DHT22;5263;48.680;9.004;2023-08-08T08:44:05;17.90;99.90
10433;DHT22;5263;48.680;9.004;2023-08-08T08:46:32;17.90;99.90
10433;DHT22;5263;48.680;9.004;2023-08-08T08:49:00;17.80;99.90
10433;DHT22;5263;48.680;9.004;2023-08-08T08:51:27;18.00;99.90
10433;DHT22;5263;48.680;9.004;2023-08-08T08:53:53;18.00;99.90
10433;DHT22;5263;48.680;9.004;2023-08-08T08:56:18;18.20;99.90
10433;DHT22;5263;48.680;9.004;2023-08-08T08:58:45;18.70;99.90
10433;DHT22;5263;48.680;9.004;2023-08-08T09:01:10;18.60;99.90
10433;DHT22;5263;48.680;9.004;2023-08-08T09:03:36;18.60;99.90
10433;DHT22;5263;48.680;9.004;2023-08-08T09:06:03;18.50;99.90
10433;DHT22;5263;48.680;9.004;2023-08-08T09:08:29;18.40;99.90
10433;DHT22;5263;48.680;9.004;2023-08-08T09:10:55;18.40;99.90
10433;DHT22;5263;48.680;9.004;2023-08-08T09:13:22;18.30;99.90
10433;DHT22;5263;48.680;9.004;2023-08-08T09:15:48;18.70;99.90
10433;DHT22;5263;48.680;9.004;2023-08-08T09:18:17;18.60;99.90
10433;DHT22;5263;48.680;9.004;2023-08-08T09:20:47;18.30;99.90
10433;DHT22;5263;48.680;9.004;2023-08-08T09:23:14;18.50;99.90
10433;DHT22;5263;48.680;9.004;2023-08-08T09:25:39;18.80;99.90
10433;DHT22;5263;48.680;9.004;2023-08-08T09:28:05;19.20;99.90
10433;DHT22;5263;48.680;9.004;2023-08-08T09:30:31;18.80;99.90
10433;DHT22;5263;48.680;9.004;2023-08-08T09:33:02;19.10;99.90
10433;DHT22;5263;48.680;9.004;2023-08-08T09:35:28;19.30;99.90
10433;DHT22;5263;48.680;9.004;2023-08-08T09:37:54;19.10;99.90
10433;DHT22;5263;48.680;9.004;2023-08-08T09:40:20;19.10;99.90
10433;DHT22;5263;48.680;9.004;2023-08-08T09:42:47;18.90;99.90
10433;DHT22;5263;48.680;9.004;2023-08-08T09:45:14;18.70;99.90
10433;DHT22;5263;48.680;9.004;2023-08-08T09:47:39;18.80;99.90
10433;DHT22;5263;48.680;9.004;2023-08-08T09:50:06;18.90;99.90
10433;DHT22;5263;48.680;9.004;2023-08-08T09:52:33;19.30;99.90
10433;DHT22;5263;48.680;9.004;2023-08-08T09:54:59;19.40;99.90
10433;DHT22;5263;48.680;9.004;2023-08-08T09:57:25;19.50;99.90
10433;DHT22;5263;48.680;9.004;2023-08-08T09:59:52;19.60;99.90
10433;DHT22;5263;48.680;9.004;2023-08-08T10:02:18;19.90;99.90
10433;DHT22;5263;48.680;9.004;2023-08-08T10:04:51;20.30;99.90
10433;DHT22;5263;48.680;9.004;2023-08-08T10:07:25;20.20;99.90
10433;DHT22;5263;48.680;9.004;2023-08-08T10:09:52;20.30;99.90
10433;DHT22;5263;48.680;9.004;2023-08-08T10:12:19;20.20;99.90
10433;DHT22;5263;48.680;9.004;2023-08-08T10:14:45;20.10;99.90
10433;DHT22;5263;48.680;9.004;2023-08-08T10:17:14;20.00;99.90
10433;DHT22;5263;48.680;9.004;2023-08-08T10:19:40;20.30;99.90
10433;DHT22;5263;48.680;9.004;2023-08-08T10:22:07;20.00;99.90
10433;DHT22;5263;48.680;9.004;2023-08-08T10:24:35;20.60;99.90
10433;DHT22;5263;48.680;9.004;2023-08-08T10:27:02;20.40;99.90
10433;DHT22;5263;48.680;9.004;2023-08-08T10:29:30;21.70;99.90
10433;DHT22;5263;48.680;9.004;2023-08-08T10:32:06;22.20;99.90
10433;DHT22;5263;48.680;9.004;2023-08-08T10:34:46;22.70;98.60
10433;DHT22;5263;48.680;9.004;2023-08-08T10:37:17;22.20;98.30
10433;DHT22;5263;48.680;9.004;2023-08-08T10:39:57;22.00;98.00
10433;DHT22;5263;48.680;9.004;2023-08-08T10:42:25;21.30;98.90
10433;DHT22;5263;48.680;9.004;2023-08-08T10:45:01;20.30;99.10
10433;DHT22;5263;48.680;9.004;2023-08-08T10:47:36;20.30;99.90
10433;DHT22;5263;48.680;9.004;2023-08-08T10:50:13;20.40;99.40
10433;DHT22;5263;48.680;9.004;2023-08-08T10:52:54;21.70;98.30
10433;DHT22;5263;48.680;9.004;2023-08-08T10:55:25;23.10;95.70
10433;DHT22;5263;48.680;9.004;2023-08-08T10:57:58;23.90;93.50
10433;DHT22;5263;48.680;9.004;2023-08-08T11:00:29;25.80;89.50
10433;DHT22;5263;48.680;9.004;2023-08-08T11:02:55;25.30;89.30
10433;DHT22;5263;48.680;9.004;2023-08-08T11:05:24;26.00;89.30
10433;DHT22;5263;48.680;9.004;2023-08-08T11:07:50;26.80;85.70
10433;DHT22;5263;48.680;9.004;2023-08-08T11:10:16;24.20;83.50
10433;DHT22;5263;48.680;9.004;2023-08-08T11:12:42;22.50;88.80
10433;DHT22;5263;48.680;9.004;2023-08-08T11:15:17;23.70;90.60
10433;DHT22;5263;48.680;9.004;2023-08-08T11:17:43;25.90;88.20
10433;DHT22;5263;48.680;9.004;2023-08-08T11:20:08;24.70;82.30
10433;DHT22;5263;48.680;9.004;2023-08-08T11:22:34;24.30;85.30
10433;DHT22;5263;48.680;9.004;2023-08-08T11:25:00;23.60;82.80
10433;DHT22;5263;48.680;9.004;2023-08-08T11:27:29;23.40;84.30
10433;DHT22;5263;48.680;9.004;2023-08-08T11:29:56;25.10;82.50
10433;DHT22;5263;48.680;9.004;2023-08-08T11:32:25;26.10;77.00
10433;DHT22;5263;48.680;9.004;2023-08-08T11:34:54;26.20;75.10
10433;DHT22;5263;48.680;9.004;2023-08-08T11:37:19;25.80;75.80
10433;DHT22;5263;48.680;9.004;2023-08-08T11:39:45;25.80;76.00
10433;DHT22;5263;48.680;9.004;2023-08-08T11:42:11;24.40;78.40
10433;DHT22;5263;48.680;9.004;2023-08-08T11:44:37;25.00;78.50
10433;DHT22;5263;48.680;9.004;2023-08-08T11:47:03;24.60;79.20
10433;DHT22;5263;48.680;9.004;2023-08-08T11:49:29;23.60;80.10
10433;DHT22;5263;48.680;9.004;2023-08-08T11:51:54;23.20;81.40
10433;DHT22;5263;48.680;9.004;2023-08-08T11:54:27;24.20;81.00
10433;DHT22;5263;48.680;9.004;2023-08-08T11:56:53;26.30;75.60
10433;DHT22;5263;48.680;9.004;2023-08-08T11:59:19;25.40;74.00
10433;DHT22;5263;48.680;9.004;2023-08-08T12:01:45;24.20;77.20
10433;DHT22;5263;48.680;9.004;2023-08-08T12:04:10;25.00;77.60
10433;DHT22;5263;48.680;9.004;2023-08-08T12:06:40;26.50;75.40
10433;DHT22;5263;48.680;9.004;2023-08-08T12:09:05;25.50;76.50
10433;DHT22;5263;48.680;9.004;2023-08-08T12:11:35;26.90;73.70
10433;DHT22;5263;48.680;9.004;2023-08-08T12:14:01;27.90;70.30
10433;DHT22;5263;48.680;9.004;2023-08-08T12:16:28;26.30;70.40
10433;DHT22;5263;48.680;9.004;2023-08-08T12:18:59;26.10;74.20
10433;DHT22;5263;48.680;9.004;2023-08-08T12:21:26;27.10;72.30
10433;DHT22;5263;48.680;9.004;2023-08-08T12:23:52;25.20;72.70
10433;DHT22;5263;48.680;9.004;2023-08-08T12:26:18;24.10;75.30
10433;DHT22;5263;48.680;9.004;2023-08-08T12:28:43;24.80;76.30
10433;DHT22;5263;48.680;9.004;2023-08-08T12:31:09;25.80;76.10
10433;DHT22;5263;48.680;9.004;2023-08-08T12:33:35;27.10;74.10
10433;DHT22;5263;48.680;9.004;2023-08-08T12:36:01;26.50;72.00
10433;DHT22;5263;48.680;9.004;2023-08-08T12:38:26;25.80;71.80
10433;DHT22;5263;48.680;9.004;2023-08-08T12:40:52;25.10;74.60
10433;DHT22;5263;48.680;9.004;2023-08-08T12:43:17;25.50;75.00
10433;DHT22;5263;48.680;9.004;2023-08-08T12:45:44;24.50;76.20
10433;DHT22;5263;48.680;9.004;2023-08-08T12:48:10;24.30;75.50
10433;DHT22;5263;48.680;9.004;2023-08-08T12:50:36;23.40;76.00
10433;DHT22;5263;48.680;9.004;2023-08-08T12:53:03;22.40;79.50
10433;DHT22;5263;48.680;9.004;2023-08-08T12:55:29;21.80;81.20
10433;DHT22;5263;48.680;9.004;2023-08-08T12:57:55;21.40;83.40
10433;DHT22;5263;48.680;9.004;2023-08-08T13:00:21;20.90;85.90
10433;DHT22;5263;48.680;9.004;2023-08-08T13:02:47;20.80;88.00
10433;DHT22;5263;48.680;9.004;2023-08-08T13:05:13;20.50;88.90
10433;DHT22;5263;48.680;9.004;2023-08-08T13:07:38;20.20;90.20
10433;DHT22;5263;48.680;9.004;2023-08-08T13:10:04;20.20;91.10
10433;DHT22;5263;48.680;9.004;2023-08-08T13:12:30;20.30;91.20
10433;DHT22;5263;48.680;9.004;2023-08-08T13:14:56;20.90;91.10
10433;DHT22;5263;48.680;9.004;2023-08-08T13:17:21;23.60;88.00
10433;DHT22;5263;48.680;9.004;2023-08-08T13:19:47;25.50;79.70
10433;DHT22;5263;48.680;9.004;2023-08-08T13:22:12;24.10;80.90
10433;DHT22;5263;48.680;9.004;2023-08-08T13:24:38;23.40;82.70
10433;DHT22;5263;48.680;9.004;2023-08-08T13:27:05;23.00;83.70
10433;DHT22;5263;48.680;9.004;2023-08-08T13:29:31;22.30;85.50
10433;DHT22;5263;48.680;9.004;2023-08-08T13:31:56;21.50;88.70
10433;DHT22;5263;48.680;9.004;2023-08-08T13:34:22;21.20;90.30
10433;DHT22;5263;48.680;9.004;2023-08-08T13:36:47;21.20;90.70
10433;DHT22;5263;48.680;9.004;2023-08-08T13:39:13;22.90;88.70
10433;DHT22;5263;48.680;9.004;2023-08-08T13:41:39;23.40;87.40
10433;DHT22;5263;48.680;9.004;2023-08-08T13:44:04;23.70;86.40
10433;DHT22;5263;48.680;9.004;2023-08-08T13:46:30;23.20;85.10
10433;DHT22;5263;48.680;9.004;2023-08-08T13:48:56;24.20;86.10
10433;DHT22;5263;48.680;9.004;2023-08-08T13:51:21;24.60;84.00
10433;DHT22;5263;48.680;9.004;2023-08-08T13:53:47;24.30;84.60
10433;DHT22;5263;48.680;9.004;2023-08-08T13:56:14;24.30;86.00
10433;DHT22;5263;48.680;9.004;2023-08-08T13:58:40;23.30;84.50
10433;DHT22;5263;48.680;9.004;2023-08-08T14:01:06;22.20;83.70
10433;DHT22;5263;48.680;9.004;2023-08-08T14:03:32;22.70;84.50
10433;DHT22;5263;48.680;9.004;2023-08-08T14:05:57;22.20;87.10
10433;DHT22;5263;48.680;9.004;2023-08-08T14:08:23;21.40;88.90
10433;DHT22;5263;48.680;9.004;2023-08-08T14:10:48;21.30;90.50
10433;DHT22;5263;48.680;9.004;2023-08-08T14:13:14;21.30;91.00
10433;DHT22;5263;48.680;9.004;2023-08-08T14:15:40;21.20;90.90
10433;DHT22;5263;48.680;9.004;2023-08-08T14:18:06;20.90;91.10
10433;DHT22;5263;48.680;9.004;2023-08-08T14:20:32;20.80;91.40
10433;DHT22;5263;48.680;9.004;2023-08-08T14:22:57;20.80;91.40
10433;DHT22;5263;48.680;9.004;2023-08-08T14:25:23;20.60;90.80
10433;DHT22;5263;48.680;9.004;2023-08-08T14:27:49;20.40;91.60
10433;DHT22;5263;48.680;9.004;2023-08-08T14:30:14;20.50;92.00
10433;DHT22;5263;48.680;9.004;2023-08-08T14:32:40;20.70;91.90
10433;DHT22;5263;48.680;9.004;2023-08-08T14:35:06;20.60;92.20
10433;DHT22;5263;48.680;9.004;2023-08-08T14:37:34;20.70;92.80
10433;DHT22;5263;48.680;9.004;2023-08-08T14:40:00;20.90;92.80
10433;DHT22;5263;48.680;9.004;2023-08-08T14:42:25;21.00;92.80
10433;DHT22;5263;48.680;9.004;2023-08-08T14:44:51;20.80;92.70
10433;DHT22;5263;48.680;9.004;2023-08-08T14:47:17;20.70;93.00
10433;DHT22;5263;48.680;9.004;2023-08-08T14:49:42;20.70;92.50
10433;DHT22;5263;48.680;9.004;2023-08-08T14:52:08;20.40;92.40
10433;DHT22;5263;48.680;9.004;2023-08-08T14:54:34;20.30;92.50
10433;DHT22;5263;48.680;9.004;2023-08-08T14:57:00;20.00;92.00
10433;DHT22;5263;48.680;9.004;2023-08-08T14:59:27;20.00;92.40
10433;DHT22;5263;48.680;9.004;2023-08-08T15:01:53;20.00;91.50
10433;DHT22;5263;48.680;9.004;2023-08-08T15:04:19;20.40;91.90
10433;DHT22;5263;48.680;9.004;2023-08-08T15:06:44;20.10;92.00
10433;DHT22;5263;48.680;9.004;2023-08-08T15:09:10;20.40;92.30
10433;DHT22;5263;48.680;9.004;2023-08-08T15:11:36;21.40;91.70
10433;DHT22;5263;48.680;9.004;2023-08-08T15:14:02;22.40;90.80
10433;DHT22;5263;48.680;9.004;2023-08-08T15:16:28;22.20;90.10
10433;DHT22;5263;48.680;9.004;2023-08-08T15:18:54;21.50;90.90
10433;DHT22;5263;48.680;9.004;2023-08-08T15:21:20;21.40;91.50
10433;DHT22;5263;48.680;9.004;2023-08-08T15:23:46;21.80;91.40
10433;DHT22;5263;48.680;9.004;2023-08-08T15:26:12;21.60;91.70
10433;DHT22;5263;48.680;9.004;2023-08-08T15:28:38;21.50;92.00
10433;DHT22;5263;48.680;9.004;2023-08-08T15:31:04;21.00;92.90
10433;DHT22;5263;48.680;9.004;2023-08-08T15:33:29;20.70;93.80
10433;DHT22;5263;48.680;9.004;2023-08-08T15:35:55;20.50;94.20
10433;DHT22;5263;48.680;9.004;2023-08-08T15:38:21;20.30;94.90
10433;DHT22;5263;48.680;9.004;2023-08-08T15:40:46;20.20;95.40
10433;DHT22;5263;48.680;9.004;2023-08-08T15:43:12;20.10;95.00
10433;DHT22;5263;48.680;9.004;2023-08-08T15:45:37;20.00;95.00